sensor_id;sensor_type;location;lat;lon;timestamp;P1;durP1;ratioP1;P2;durP2;ratioP2
70008;SDS011;59542;37.950;-122.338;2022-09-16T00:01:22;10.45;;;4.95;;
70008;SDS011;59542;37.950;-122.338;2022-09-16T00:03:52;7.53;;;4.43;;
70008;SDS011;59542;37.950;-122.338;2022-09-16T00:06:27;10.52;;;5.47;;
70008;SDS011;59542;37.950;-122.338;2022-09-16T00:08:55;9.57;;;4.53;;
70008;SDS011;59542;37.950;-122.338;2022-09-16T00:11:22;7.30;;;5.28;;
70008;SDS011;59542;37.950;-122.338;2022-09-16T00:13:49;7.80;;;4.55;;
70008;SDS011;59542;37.950;-122.338;2022-09-16T00:16:24;10.10;;;4.68;;
70008;SDS011;59542;37.950;-122.338;2022-09-16T00:18:55;6.72;;;4.57;;
70008;SDS011;59542;37.950;-122.338;2022-09-16T00:21:24;7.88;;;4.80;;
70008;SDS011;59542;37.950;-122.338;2022-09-16T00:23:53;6.97;;;4.68;;
70008;SDS011;59542;37.950;-122.338;2022-09-16T00:26:20;8.48;;;5.00;;
70008;SDS011;59542;37.950;-122.338;2022-09-16T00:28:47;9.57;;;4.50;;
70008;SDS011;59542;37.950;-122.338;2022-09-16T00:31:15;6.68;;;4.88;;
70008;SDS011;59542;37.950;-122.338;2022-09-16T00:33:42;7.55;;;4.82;;
70008;SDS011;59542;37.950;-122.338;2022-09-16T00:36:12;5.90;;;4.75;;
70008;SDS011;59542;37.950;-122.338;2022-09-16T00:38:40;7.72;;;4.53;;
70008;SDS011;59542;37.950;-122.338;2022-09-16T00:41:07;9.25;;;4.85;;
70008;SDS011;59542;37.950;-122.338;2022-09-16T00:46:52;6.97;;;4.22;;
70008;SDS011;59542;37.950;-122.338;2022-09-16T00:49:20;7.57;;;4.57;;
70008;SDS011;59542;37.950;-122.338;2022-09-16T00:51:52;8.25;;;4.20;;
70008;SDS011;59542;37.950;-122.338;2022-09-16T00:54:22;6.38;;;3.78;;
70008;SDS011;59542;37.950;-122.338;2022-09-16T00:56:50;5.75;;;3.90;;
70008;SDS011;59542;37.950;-122.338;2022-09-16T00:59:27;11.52;;;4.18;;
70008;SDS011;59542;37.950;-122.338;2022-09-16T01:01:57;12.30;;;4.05;;
70008;SDS011;59542;37.950;-122.338;2022-09-16T01:04:28;6.40;;;4.05;;
70008;SDS011;59542;37.950;-122.338;2022-09-16T01:06:59;7.13;;;4.03;;
70008;SDS011;59542;37.950;-122.338;2022-09-16T01:09:26;9.52;;;4.28;;
70008;SDS011;59542;37.950;-122.338;2022-09-16T01:11:54;8.55;;;3.65;;
70008;SDS011;59542;37.950;-122.338;2022-09-16T01:14:20;7.22;;;4.28;;
70008;SDS011;59542;37.950;-122.338;2022-09-16T01:17:21;6.18;;;3.83;;
70008;SDS011;59542;37.950;-122.338;2022-09-16T01:20:02;9.57;;;4.32;;
70008;SDS011;59542;37.950;-122.338;2022-09-16T01:23:00;4.45;;;4.00;;
70008;SDS011;59542;37.950;-122.338;2022-09-16T01:28:16;7.85;;;4.18;;
70008;SDS011;59542;37.950;-122.338;2022-09-16T01:47:16;8.75;;;4.30;;
70008;SDS011;59542;37.950;-122.338;2022-09-16T01:50:15;28.30;;;6.43;;
70008;SDS011;59542;37.950;-122.338;2022-09-16T01:55:53;6.13;;;4.18;;
70008;SDS011;59542;37.950;-122.338;2022-09-16T01:58:26;8.63;;;4.68;;
70008;SDS011;59542;37.950;-122.338;2022-09-16T02:00:59;6.55;;;3.85;;
70008;SDS011;59542;37.950;-122.338;2022-09-16T02:03:32;6.57;;;4.10;;
70008;SDS011;59542;37.950;-122.338;2022-09-16T02:06:04;8.02;;;4.53;;
70008;SDS011;59542;37.950;-122.338;2022-09-16T02:11:15;9.73;;;4.82;;
70008;SDS011;59542;37.950;-122.338;2022-09-16T02:13:47;7.90;;;4.35;;
70008;SDS011;59542;37.950;-122.338;2022-09-16T02:16:25;7.13;;;4.60;;
70008;SDS011;59542;37.950;-122.338;2022-09-16T02:19:00;8.07;;;4.25;;
70008;SDS011;59542;37.950;-122.338;2022-09-16T02:21:31;12.10;;;4.28;;
70008;SDS011;59542;37.950;-122.338;2022-09-16T02:24:01;10.30;;;4.75;;
70008;SDS011;59542;37.950;-122.338;2022-09-16T02:26:37;11.05;;;4.88;;
70008;SDS011;59542;37.950;-122.338;2022-09-16T02:29:10;11.95;;;4.55;;
70008;SDS011;59542;37.950;-122.338;2022-09-16T02:31:42;9.18;;;5.47;;
70008;SDS011;59542;37.950;-122.338;2022-09-16T02:34:16;11.48;;;5.22;;
70008;SDS011;59542;37.950;-122.338;2022-09-16T02:36:46;12.10;;;5.10;;
70008;SDS011;59542;37.950;-122.338;2022-09-16T02:39:18;12.50;;;5.25;;
70008;SDS011;59542;37.950;-122.338;2022-09-16T02:41:49;7.55;;;4.60;;
70008;SDS011;59542;37.950;-122.338;2022-09-16T02:44:16;7.45;;;4.60;;
70008;SDS011;59542;37.950;-122.338;2022-09-16T02:50:08;11.48;;;4.95;;
70008;SDS011;59542;37.950;-122.338;2022-09-16T02:58:03;10.73;;;4.72;;
70008;SDS011;59542;37.950;-122.338;2022-09-16T03:00:31;9.70;;;4.80;;
70008;SDS011;59542;37.950;-122.338;2022-09-16T03:03:01;11.93;;;4.72;;
70008;SDS011;59542;37.950;-122.338;2022-09-16T03:05:28;13.00;;;5.30;;
70008;SDS011;59542;37.950;-122.338;2022-09-16T03:07:55;8.77;;;5.05;;
70008;SDS011;59542;37.950;-122.338;2022-09-16T03:10:23;10.57;;;5.10;;
70008;SDS011;59542;37.950;-122.338;2022-09-16T03:28:57;10.05;;;4.65;;
70008;SDS011;59542;37.950;-122.338;2022-09-16T03:34:29;11.18;;;5.40;;
70008;SDS011;59542;37.950;-122.338;2022-09-16T03:37:15;10.48;;;5.03;;
70008;SDS011;59542;37.950;-122.338;2022-09-16T03:39:48;9.50;;;5.00;;
70008;SDS011;59542;37.950;-122.338;2022-09-16T03:42:20;9.23;;;4.93;;
70008;SDS011;59542;37.950;-122.338;2022-09-16T03:44:47;6.75;;;4.70;;
70008;SDS011;59542;37.950;-122.338;2022-09-16T03:47:13;11.70;;;5.05;;
70008;SDS011;59542;37.950;-122.338;2022-09-16T03:49:40;10.00;;;5.22;;
70008;SDS011;59542;37.950;-122.338;2022-09-16T03:52:06;14.77;;;5.32;;
70008;SDS011;59542;37.950;-122.338;2022-09-16T03:54:33;9.77;;;5.43;;
70008;SDS011;59542;37.950;-122.338;2022-09-16T03:57:00;12.55;;;4.85;;
70008;SDS011;59542;37.950;-122.338;2022-09-16T03:59:27;8.15;;;5.55;;
70008;SDS011;59542;37.950;-122.338;2022-09-16T04:01:53;8.55;;;5.22;;
70008;SDS011;59542;37.950;-122.338;2022-09-16T04:04:20;8.35;;;4.55;;
70008;SDS011;59542;37.950;-122.338;2022-09-16T04:06:46;10.35;;;5.22;;
70008;SDS011;59542;37.950;-122.338;2022-09-16T04:09:13;12.40;;;5.00;;
70008;SDS011;59542;37.950;-122.338;2022-09-16T04:11:41;6.30;;;4.35;;
70008;SDS011;59542;37.950;-122.338;2022-09-16T04:14:07;13.48;;;5.47;;
70008;SDS011;59542;37.950;-122.338;2022-09-16T04:16:35;9.75;;;4.75;;
70008;SDS011;59542;37.950;-122.338;2022-09-16T04:19:01;8.95;;;4.75;;
70008;SDS011;59542;37.950;-122.338;2022-09-16T04:21:27;13.40;;;5.43;;
70008;SDS011;59542;37.950;-122.338;2022-09-16T04:23:54;11.93;;;5.35;;
70008;SDS011;59542;37.950;-122.338;2022-09-16T04:26:20;8.65;;;4.90;;
70008;SDS011;59542;37.950;-122.338;2022-09-16T04:28:46;8.30;;;5.10;;
70008;SDS011;59542;37.950;-122.338;2022-09-16T04:31:13;10.68;;;5.35;;
70008;SDS011;59542;37.950;-122.338;2022-09-16T04:33:41;10.95;;;4.80;;
70008;SDS011;59542;37.950;-122.338;2022-09-16T04:36:08;9.35;;;5.22;;
70008;SDS011;59542;37.950;-122.338;2022-09-16T04:38:37;13.45;;;5.10;;
70008;SDS011;59542;37.950;-122.338;2022-09-16T04:41:05;9.23;;;5.28;;
70008;SDS011;59542;37.950;-122.338;2022-09-16T04:43:34;13.50;;;5.22;;
70008;SDS011;59542;37.950;-122.338;2022-09-16T04:46:00;7.60;;;4.95;;
70008;SDS011;59542;37.950;-122.338;2022-09-16T04:48:27;9.88;;;5.25;;
70008;SDS011;59542;37.950;-122.338;2022-09-16T04:50:59;9.02;;;4.80;;
70008;SDS011;59542;37.950;-122.338;2022-09-16T04:53:28;10.70;;;4.78;;
70008;SDS011;59542;37.950;-122.338;2022-09-16T04:56:00;9.52;;;4.90;;
70008;SDS011;59542;37.950;-122.338;2022-09-16T04:58:31;7.20;;;4.82;;
70008;SDS011;59542;37.950;-122.338;2022-09-16T05:01:02;10.27;;;4.95;;
70008;SDS011;59542;37.950;-122.338;2022-09-16T05:03:39;10.77;;;5.07;;
70008;SDS011;59542;37.950;-122.338;2022-09-16T05:06:07;17.15;;;5.57;;
70008;SDS011;59542;37.950;-122.338;2022-09-16T05:08:36;9.38;;;5.10;;
70008;SDS011;59542;37.950;-122.338;2022-09-16T05:11:04;9.52;;;5.43;;
70008;SDS011;59542;37.950;-122.338;2022-09-16T05:13:32;9.77;;;4.82;;
70008;SDS011;59542;37.950;-122.338;2022-09-16T05:16:06;11.32;;;4.70;;
70008;SDS011;59542;37.950;-122.338;2022-09-16T05:18:34;7.90;;;4.80;;
70008;SDS011;59542;37.950;-122.338;2022-09-16T05:21:02;8.52;;;5.32;;
70008;SDS011;59542;37.950;-122.338;2022-09-16T05:23:30;10.27;;;5.40;;
70008;SDS011;59542;37.950;-122.338;2022-09-16T05:26:04;14.90;;;5.68;;
70008;SDS011;59542;37.950;-122.338;2022-09-16T05:28:49;12.52;;;5.82;;
70008;SDS011;59542;37.950;-122.338;2022-09-16T05:31:17;15.20;;;6.38;;
70008;SDS011;59542;37.950;-122.338;2022-09-16T05:36:27;8.40;;;5.28;;
70008;SDS011;59542;37.950;-122.338;2022-09-16T05:38:55;10.68;;;5.70;;
70008;SDS011;59542;37.950;-122.338;2022-09-16T05:41:22;10.40;;;5.90;;
70008;SDS011;59542;37.950;-122.338;2022-09-16T05:43:48;12.57;;;5.28;;
70008;SDS011;59542;37.950;-122.338;2022-09-16T05:46:19;15.45;;;6.10;;
70008;SDS011;59542;37.950;-122.338;2022-09-16T05:48:46;12.77;;;6.00;;
70008;SDS011;59542;37.950;-122.338;2022-09-16T05:51:17;10.85;;;5.45;;
70008;SDS011;59542;37.950;-122.338;2022-09-16T05:53:46;11.00;;;5.93;;
70008;SDS011;59542;37.950;-122.338;2022-09-16T05:56:23;10.93;;;5.38;;
70008;SDS011;59542;37.950;-122.338;2022-09-16T05:58:52;15.60;;;6.32;;
70008;SDS011;59542;37.950;-122.338;2022-09-16T06:01:20;16.17;;;6.30;;
70008;SDS011;59542;37.950;-122.338;2022-09-16T06:03:51;10.02;;;5.38;;
70008;SDS011;59542;37.950;-122.338;2022-09-16T06:06:23;6.97;;;5.25;;
70008;SDS011;59542;37.950;-122.338;2022-09-16T06:08:57;14.18;;;6.30;;
70008;SDS011;59542;37.950;-122.338;2022-09-16T06:11:26;10.23;;;6.15;;
70008;SDS011;59542;37.950;-122.338;2022-09-16T06:13:53;8.88;;;5.78;;
70008;SDS011;59542;37.950;-122.338;2022-09-16T06:16:22;11.25;;;6.05;;
70008;SDS011;59542;37.950;-122.338;2022-09-16T06:18:53;13.27;;;6.88;;
70008;SDS011;59542;37.950;-122.338;2022-09-16T06:21:21;13.00;;;5.63;;
70008;SDS011;59542;37.950;-122.338;2022-09-16T06:23:48;10.00;;;6.22;;
70008;SDS011;59542;37.950;-122.338;2022-09-16T06:26:19;12.13;;;5.78;;
70008;SDS011;59542;37.950;-122.338;2022-09-16T06:28:47;15.07;;;5.70;;
70008;SDS011;59542;37.950;-122.338;2022-09-16T06:31:16;14.60;;;6.43;;
70008;SDS011;59542;37.950;-122.338;2022-09-16T06:33:43;8.90;;;6.30;;
70008;SDS011;59542;37.950;-122.338;2022-09-16T06:36:11;11.32;;;6.05;;
70008;SDS011;59542;37.950;-122.338;2022-09-16T06:38:39;10.63;;;6.30;;
70008;SDS011;59542;37.950;-122.338;2022-09-16T06:41:06;8.85;;;5.65;;
70008;SDS011;59542;37.950;-122.338;2022-09-16T06:43:34;7.47;;;5.22;;
70008;SDS011;59542;37.950;-122.338;2022-09-16T06:46:05;11.73;;;6.03;;
70008;SDS011;59542;37.950;-122.338;2022-09-16T06:48:38;10.00;;;6.30;;
70008;SDS011;59542;37.950;-122.338;2022-09-16T06:51:08;11.15;;;6.28;;
70008;SDS011;59542;37.950;-122.338;2022-09-16T06:53:36;14.75;;;6.43;;
70008;SDS011;59542;37.950;-122.338;2022-09-16T06:56:04;14.57;;;6.53;;
70008;SDS011;59542;37.950;-122.338;2022-09-16T06:58:35;11.18;;;6.47;;
70008;SDS011;59542;37.950;-122.338;2022-09-16T07:01:05;11.93;;;6.38;;
70008;SDS011;59542;37.950;-122.338;2022-09-16T07:03:32;13.27;;;6.25;;
70008;SDS011;59542;37.950;-122.338;2022-09-16T07:06:02;9.25;;;5.38;;
70008;SDS011;59542;37.950;-122.338;2022-09-16T07:08:29;15.27;;;5.75;;
70008;SDS011;59542;37.950;-122.338;2022-09-16T07:10:57;15.55;;;6.22;;
70008;SDS011;59542;37.950;-122.338;2022-09-16T07:13:24;11.50;;;6.82;;
70008;SDS011;59542;37.950;-122.338;2022-09-16T07:15:51;13.15;;;6.38;;
70008;SDS011;59542;37.950;-122.338;2022-09-16T07:18:18;10.82;;;6.53;;
70008;SDS011;59542;37.950;-122.338;2022-09-16T07:20:44;11.65;;;6.90;;
70008;SDS011;59542;37.950;-122.338;2022-09-16T07:23:11;11.35;;;6.45;;
70008;SDS011;59542;37.950;-122.338;2022-09-16T07:25:37;14.95;;;6.90;;
70008;SDS011;59542;37.950;-122.338;2022-09-16T07:28:03;12.57;;;6.43;;
70008;SDS011;59542;37.950;-122.338;2022-09-16T07:30:29;12.05;;;6.82;;
70008;SDS011;59542;37.950;-122.338;2022-09-16T07:32:58;11.85;;;7.22;;
70008;SDS011;59542;37.950;-122.338;2022-09-16T07:35:25;11.45;;;6.80;;
70008;SDS011;59542;37.950;-122.338;2022-09-16T07:37:51;16.48;;;7.07;;
70008;SDS011;59542;37.950;-122.338;2022-09-16T07:40:17;13.60;;;6.80;;
70008;SDS011;59542;37.950;-122.338;2022-09-16T07:42:43;19.17;;;6.90;;
70008;SDS011;59542;37.950;-122.338;2022-09-16T07:45:09;12.20;;;6.13;;
70008;SDS011;59542;37.950;-122.338;2022-09-16T07:47:36;17.75;;;6.75;;
70008;SDS011;59542;37.950;-122.338;2022-09-16T07:50:02;13.93;;;6.22;;
70008;SDS011;59542;37.950;-122.338;2022-09-16T07:52:29;13.30;;;6.97;;
70008;SDS011;59542;37.950;-122.338;2022-09-16T07:54:55;13.27;;;7.43;;
70008;SDS011;59542;37.950;-122.338;2022-09-16T07:57:21;12.40;;;6.95;;
70008;SDS011;59542;37.950;-122.338;2022-09-16T07:59:48;8.52;;;6.57;;
70008;SDS011;59542;37.950;-122.338;2022-09-16T08:02:15;9.80;;;6.88;;
70008;SDS011;59542;37.950;-122.338;2022-09-16T08:04:41;14.38;;;7.07;;
70008;SDS011;59542;37.950;-122.338;2022-09-16T08:07:08;18.95;;;6.65;;
70008;SDS011;59542;37.950;-122.338;2022-09-16T08:09:34;17.33;;;7.60;;
70008;SDS011;59542;37.950;-122.338;2022-09-16T08:12:02;13.55;;;6.75;;
70008;SDS011;59542;37.950;-122.338;2022-09-16T08:14:30;11.25;;;7.43;;
70008;SDS011;59542;37.950;-122.338;2022-09-16T08:16:57;11.27;;;7.72;;
70008;SDS011;59542;37.950;-122.338;2022-09-16T08:19:23;14.27;;;7.47;;
70008;SDS011;59542;37.950;-122.338;2022-09-16T08:21:50;13.85;;;6.97;;
70008;SDS011;59542;37.950;-122.338;2022-09-16T08:24:16;14.13;;;7.97;;
70008;SDS011;59542;37.950;-122.338;2022-09-16T08:26:42;12.45;;;6.97;;
70008;SDS011;59542;37.950;-122.338;2022-09-16T08:29:08;16.20;;;7.30;;
70008;SDS011;59542;37.950;-122.338;2022-09-16T08:31:35;11.02;;;7.57;;
70008;SDS011;59542;37.950;-122.338;2022-09-16T08:34:02;14.95;;;7.55;;
70008;SDS011;59542;37.950;-122.338;2022-09-16T08:36:28;12.60;;;7.25;;
70008;SDS011;59542;37.950;-122.338;2022-09-16T08:38:57;14.48;;;7.35;;
70008;SDS011;59542;37.950;-122.338;2022-09-16T08:50:00;11.25;;;6.38;;
70008;SDS011;59542;37.950;-122.338;2022-09-16T08:52:36;15.82;;;7.40;;
70008;SDS011;59542;37.950;-122.338;2022-09-16T08:55:15;11.13;;;7.07;;
70008;SDS011;59542;37.950;-122.338;2022-09-16T08:58:01;12.10;;;6.85;;
70008;SDS011;59542;37.950;-122.338;2022-09-16T09:00:31;17.15;;;7.47;;
70008;SDS011;59542;37.950;-122.338;2022-09-16T09:03:06;14.48;;;7.00;;
70008;SDS011;59542;37.950;-122.338;2022-09-16T09:05:54;14.65;;;6.85;;
70008;SDS011;59542;37.950;-122.338;2022-09-16T09:11:33;11.82;;;6.97;;
70008;SDS011;59542;37.950;-122.338;2022-09-16T09:14:09;17.88;;;7.57;;
70008;SDS011;59542;37.950;-122.338;2022-09-16T09:23:26;15.05;;;8.05;;
70008;SDS011;59542;37.950;-122.338;2022-09-16T09:33:50;13.02;;;7.07;;
70008;SDS011;59542;37.950;-122.338;2022-09-16T09:42:09;15.00;;;7.20;;
70008;SDS011;59542;37.950;-122.338;2022-09-16T09:47:42;18.17;;;7.57;;
70008;SDS011;59542;37.950;-122.338;2022-09-16T09:55:23;17.08;;;8.02;;
70008;SDS011;59542;37.950;-122.338;2022-09-16T09:57:58;15.02;;;8.43;;
70008;SDS011;59542;37.950;-122.338;2022-09-16T10:00:42;13.18;;;7.50;;
70008;SDS011;59542;37.950;-122.338;2022-09-16T10:03:10;11.82;;;7.25;;
70008;SDS011;59542;37.950;-122.338;2022-09-16T10:05:39;11.10;;;7.10;;
70008;SDS011;59542;37.950;-122.338;2022-09-16T10:10:59;22.65;;;7.80;;
70008;SDS011;59542;37.950;-122.338;2022-09-16T10:13:28;24.17;;;7.57;;
70008;SDS011;59542;37.950;-122.338;2022-09-16T10:16:06;18.42;;;8.13;;
70008;SDS011;59542;37.950;-122.338;2022-09-16T10:21:48;16.77;;;7.15;;
70008;SDS011;59542;37.950;-122.338;2022-09-16T10:24:36;14.68;;;7.82;;
70008;SDS011;59542;37.950;-122.338;2022-09-16T10:30:02;15.88;;;7.20;;
70008;SDS011;59542;37.950;-122.338;2022-09-16T10:32:33;15.55;;;7.53;;
70008;SDS011;59542;37.950;-122.338;2022-09-16T10:35:22;17.55;;;7.88;;
70008;SDS011;59542;37.950;-122.338;2022-09-16T10:37:54;15.02;;;6.95;;
70008;SDS011;59542;37.950;-122.338;2022-09-16T10:40:27;16.45;;;7.43;;
70008;SDS011;59542;37.950;-122.338;2022-09-16T10:42:56;21.17;;;7.88;;
70008;SDS011;59542;37.950;-122.338;2022-09-16T10:45:42;17.02;;;7.38;;
70008;SDS011;59542;37.950;-122.338;2022-09-16T10:48:12;15.23;;;7.75;;
70008;SDS011;59542;37.950;-122.338;2022-09-16T10:50:54;18.88;;;7.70;;
70008;SDS011;59542;37.950;-122.338;2022-09-16T10:53:44;16.33;;;7.22;;
70008;SDS011;59542;37.950;-122.338;2022-09-16T10:56:16;18.90;;;7.53;;
70008;SDS011;59542;37.950;-122.338;2022-09-16T10:58:44;13.10;;;7.18;;
70008;SDS011;59542;37.950;-122.338;2022-09-16T11:10:23;13.43;;;7.25;;
70008;SDS011;59542;37.950;-122.338;2022-09-16T11:20:52;11.48;;;7.05;;
70008;SDS011;59542;37.950;-122.338;2022-09-16T11:23:32;14.07;;;7.32;;
70008;SDS011;59542;37.950;-122.338;2022-09-16T11:37:56;15.88;;;7.45;;
70008;SDS011;59542;37.950;-122.338;2022-09-16T11:40:50;20.85;;;7.65;;
70008;SDS011;59542;37.950;-122.338;2022-09-16T11:51:27;13.45;;;6.57;;
70008;SDS011;59542;37.950;-122.338;2022-09-16T12:04:19;17.73;;;7.60;;
70008;SDS011;59542;37.950;-122.338;2022-09-16T12:07:10;14.75;;;6.75;;
70008;SDS011;59542;37.950;-122.338;2022-09-16T12:09:49;15.00;;;7.15;;
70008;SDS011;59542;37.950;-122.338;2022-09-16T12:12:27;14.07;;;8.35;;
70008;SDS011;59542;37.950;-122.338;2022-09-16T12:14:58;15.25;;;7.32;;
70008;SDS011;59542;37.950;-122.338;2022-09-16T12:17:32;13.02;;;7.43;;
70008;SDS011;59542;37.950;-122.338;2022-09-16T12:20:12;12.02;;;7.05;;
70008;SDS011;59542;37.950;-122.338;2022-09-16T12:22:59;12.75;;;7.85;;
70008;SDS011;59542;37.950;-122.338;2022-09-16T12:28:59;10.52;;;7.03;;
70008;SDS011;59542;37.950;-122.338;2022-09-16T12:32:31;17.27;;;7.25;;
70008;SDS011;59542;37.950;-122.338;2022-09-16T12:39:52;15.70;;;7.57;;
70008;SDS011;59542;37.950;-122.338;2022-09-16T12:44:59;14.50;;;6.72;;
70008;SDS011;59542;37.950;-122.338;2022-09-16T12:58:50;16.00;;;7.72;;
70008;SDS011;59542;37.950;-122.338;2022-09-16T13:01:53;11.60;;;6.88;;
70008;SDS011;59542;37.950;-122.338;2022-09-16T13:04:44;18.80;;;7.45;;
70008;SDS011;59542;37.950;-122.338;2022-09-16T13:07:22;15.15;;;7.40;;
70008;SDS011;59542;37.950;-122.338;2022-09-16T13:10:13;12.25;;;6.90;;
70008;SDS011;59542;37.950;-122.338;2022-09-16T13:12:50;15.32;;;7.78;;
70008;SDS011;59542;37.950;-122.338;2022-09-16T13:15:22;14.52;;;6.85;;
70008;SDS011;59542;37.950;-122.338;2022-09-16T13:17:51;11.52;;;7.20;;
70008;SDS011;59542;37.950;-122.338;2022-09-16T13:20:28;18.30;;;7.15;;
70008;SDS011;59542;37.950;-122.338;2022-09-16T13:23:03;11.52;;;7.20;;
70008;SDS011;59542;37.950;-122.338;2022-09-16T13:33:40;12.57;;;6.88;;
70008;SDS011;59542;37.950;-122.338;2022-09-16T13:39:02;14.90;;;7.55;;
70008;SDS011;59542;37.950;-122.338;2022-09-16T13:49:34;10.20;;;6.35;;
70008;SDS011;59542;37.950;-122.338;2022-09-16T13:52:46;12.73;;;6.88;;
70008;SDS011;59542;37.950;-122.338;2022-09-16T13:55:23;19.15;;;7.60;;
70008;SDS011;59542;37.950;-122.338;2022-09-16T13:58:01;14.77;;;8.25;;
70008;SDS011;59542;37.950;-122.338;2022-09-16T14:00:36;16.85;;;8.70;;
70008;SDS011;59542;37.950;-122.338;2022-09-16T14:04:00;16.25;;;7.57;;
70008;SDS011;59542;37.950;-122.338;2022-09-16T14:07:14;13.70;;;7.28;;
70008;SDS011;59542;37.950;-122.338;2022-09-16T14:12:22;29.75;;;9.73;;
70008;SDS011;59542;37.950;-122.338;2022-09-16T14:14:57;15.13;;;8.63;;
70008;SDS011;59542;37.950;-122.338;2022-09-16T14:17:25;13.68;;;7.97;;
70008;SDS011;59542;37.950;-122.338;2022-09-16T14:19:57;14.93;;;7.57;;
70008;SDS011;59542;37.950;-122.338;2022-09-16T14:22:24;13.35;;;7.95;;
70008;SDS011;59542;37.950;-122.338;2022-09-16T14:24:52;14.43;;;7.30;;
70008;SDS011;59542;37.950;-122.338;2022-09-16T14:30:05;12.63;;;7.85;;
70008;SDS011;59542;37.950;-122.338;2022-09-16T14:32:39;13.13;;;7.45;;
70008;SDS011;59542;37.950;-122.338;2022-09-16T14:35:09;15.40;;;7.80;;
70008;SDS011;59542;37.950;-122.338;2022-09-16T14:37:45;14.68;;;7.40;;
70008;SDS011;59542;37.950;-122.338;2022-09-16T14:40:14;11.20;;;7.68;;
70008;SDS011;59542;37.950;-122.338;2022-09-16T14:42:47;18.23;;;7.80;;
70008;SDS011;59542;37.950;-122.338;2022-09-16T14:45:16;12.52;;;7.15;;
70008;SDS011;59542;37.950;-122.338;2022-09-16T14:47:44;15.93;;;7.32;;
70008;SDS011;59542;37.950;-122.338;2022-09-16T14:50:17;11.65;;;6.57;;
70008;SDS011;59542;37.950;-122.338;2022-09-16T14:52:58;13.30;;;7.30;;
70008;SDS011;59542;37.950;-122.338;2022-09-16T14:55:27;14.85;;;6.65;;
70008;SDS011;59542;37.950;-122.338;2022-09-16T14:57:58;10.32;;;6.60;;
70008;SDS011;59542;37.950;-122.338;2022-09-16T15:00:26;13.32;;;6.60;;
70008;SDS011;59542;37.950;-122.338;2022-09-16T15:05:54;18.13;;;7.47;;
70008;SDS011;59542;37.950;-122.338;2022-09-16T15:08:31;12.15;;;6.78;;
70008;SDS011;59542;37.950;-122.338;2022-09-16T15:11:18;18.13;;;6.90;;
70008;SDS011;59542;37.950;-122.338;2022-09-16T15:13:47;18.30;;;7.35;;
70008;SDS011;59542;37.950;-122.338;2022-09-16T15:16:16;14.45;;;6.95;;
70008;SDS011;59542;37.950;-122.338;2022-09-16T15:18:51;17.23;;;6.35;;
70008;SDS011;59542;37.950;-122.338;2022-09-16T15:21:27;19.88;;;7.75;;
70008;SDS011;59542;37.950;-122.338;2022-09-16T15:23:57;22.55;;;7.70;;
70008;SDS011;59542;37.950;-122.338;2022-09-16T15:26:28;11.93;;;6.85;;
70008;SDS011;59542;37.950;-122.338;2022-09-16T15:28:56;15.88;;;6.93;;
70008;SDS011;59542;37.950;-122.338;2022-09-16T15:36:43;11.93;;;6.63;;
70008;SDS011;59542;37.950;-122.338;2022-09-16T15:39:21;13.57;;;6.45;;
70008;SDS011;59542;37.950;-122.338;2022-09-16T15:44:42;13.73;;;6.45;;
70008;SDS011;59542;37.950;-122.338;2022-09-16T15:47:18;10.52;;;6.47;;
70008;SDS011;59542;37.950;-122.338;2022-09-16T15:49:45;9.85;;;6.47;;
70008;SDS011;59542;37.950;-122.338;2022-09-16T15:52:16;12.07;;;6.05;;
70008;SDS011;59542;37.950;-122.338;2022-09-16T15:54:50;10.27;;;6.07;;
70008;SDS011;59542;37.950;-122.338;2022-09-16T15:57:26;10.05;;;5.95;;
70008;SDS011;59542;37.950;-122.338;2022-09-16T16:02:36;15.57;;;6.68;;
70008;SDS011;59542;37.950;-122.338;2022-09-16T16:05:33;11.68;;;6.30;;
70008;SDS011;59542;37.950;-122.338;2022-09-16T16:08:03;9.23;;;6.00;;
70008;SDS011;59542;37.950;-122.338;2022-09-16T16:10:30;11.68;;;5.47;;
70008;SDS011;59542;37.950;-122.338;2022-09-16T16:13:00;8.55;;;6.10;;
70008;SDS011;59542;37.950;-122.338;2022-09-16T16:15:29;10.00;;;5.55;;
70008;SDS011;59542;37.950;-122.338;2022-09-16T16:18:02;14.13;;;5.95;;
70008;SDS011;59542;37.950;-122.338;2022-09-16T16:20:31;11.10;;;6.43;;
70008;SDS011;59542;37.950;-122.338;2022-09-16T16:23:00;12.80;;;6.00;;
70008;SDS011;59542;37.950;-122.338;2022-09-16T16:25:27;12.23;;;6.43;;
70008;SDS011;59542;37.950;-122.338;2022-09-16T16:27:53;11.98;;;5.82;;
70008;SDS011;59542;37.950;-122.338;2022-09-16T16:30:20;11.02;;;6.32;;
70008;SDS011;59542;37.950;-122.338;2022-09-16T16:32:46;8.95;;;5.50;;
70008;SDS011;59542;37.950;-122.338;2022-09-16T16:35:13;15.27;;;6.53;;
70008;SDS011;59542;37.950;-122.338;2022-09-16T16:37:39;10.48;;;5.60;;
70008;SDS011;59542;37.950;-122.338;2022-09-16T16:40:06;13.00;;;6.13;;
70008;SDS011;59542;37.950;-122.338;2022-09-16T16:42:33;13.00;;;5.45;;
70008;SDS011;59542;37.950;-122.338;2022-09-16T16:45:00;12.07;;;5.97;;
70008;SDS011;59542;37.950;-122.338;2022-09-16T16:47:26;9.52;;;5.10;;
70008;SDS011;59542;37.950;-122.338;2022-09-16T16:49:52;10.93;;;5.35;;
70008;SDS011;59542;37.950;-122.338;2022-09-16T17:02:50;11.18;;;5.60;;
70008;SDS011;59542;37.950;-122.338;2022-09-16T17:05:17;13.13;;;6.40;;
70008;SDS011;59542;37.950;-122.338;2022-09-16T17:07:43;11.10;;;4.90;;
70008;SDS011;59542;37.950;-122.338;2022-09-16T17:10:09;8.30;;;5.28;;
70008;SDS011;59542;37.950;-122.338;2022-09-16T17:12:35;10.43;;;5.28;;
70008;SDS011;59542;37.950;-122.338;2022-09-16T17:15:01;9.90;;;5.07;;
70008;SDS011;59542;37.950;-122.338;2022-09-16T17:17:28;11.27;;;5.32;;
70008;SDS011;59542;37.950;-122.338;2022-09-16T17:19:54;10.07;;;5.63;;
70008;SDS011;59542;37.950;-122.338;2022-09-16T17:22:20;11.20;;;5.35;;
70008;SDS011;59542;37.950;-122.338;2022-09-16T17:24:46;11.82;;;6.07;;
70008;SDS011;59542;37.950;-122.338;2022-09-16T17:27:12;13.02;;;5.53;;
70008;SDS011;59542;37.950;-122.338;2022-09-16T17:29:43;9.32;;;5.68;;
70008;SDS011;59542;37.950;-122.338;2022-09-16T17:32:10;8.63;;;4.80;;
70008;SDS011;59542;37.950;-122.338;2022-09-16T17:34:36;9.68;;;5.10;;
70008;SDS011;59542;37.950;-122.338;2022-09-16T17:37:02;9.38;;;5.28;;
70008;SDS011;59542;37.950;-122.338;2022-09-16T17:39:32;10.68;;;5.43;;
70008;SDS011;59542;37.950;-122.338;2022-09-16T17:41:59;11.25;;;5.70;;
70008;SDS011;59542;37.950;-122.338;2022-09-16T17:44:25;11.05;;;6.13;;
70008;SDS011;59542;37.950;-122.338;2022-09-16T17:46:51;11.32;;;5.53;;
70008;SDS011;59542;37.950;-122.338;2022-09-16T17:49:19;11.52;;;5.95;;
70008;SDS011;59542;37.950;-122.338;2022-09-16T17:51:46;9.45;;;5.60;;
70008;SDS011;59542;37.950;-122.338;2022-09-16T17:54:13;11.75;;;5.63;;
70008;SDS011;59542;37.950;-122.338;2022-09-16T17:56:40;7.82;;;4.85;;
70008;SDS011;59542;37.950;-122.338;2022-09-16T17:59:09;8.43;;;5.50;;
70008;SDS011;59542;37.950;-122.338;2022-09-16T18:01:37;8.68;;;5.50;;
70008;SDS011;59542;37.950;-122.338;2022-09-16T18:04:04;12.55;;;5.22;;
70008;SDS011;59542;37.950;-122.338;2022-09-16T18:06:31;9.40;;;5.30;;
70008;SDS011;59542;37.950;-122.338;2022-09-16T18:09:08;9.95;;;5.35;;
70008;SDS011;59542;37.950;-122.338;2022-09-16T18:11:35;9.68;;;5.95;;